sensor_id;sensor_type;location;lat;lon;timestamp;P1;durP1;ratioP1;P2;durP2;ratioP2
15913;SDS011;8055;51.930;8.840;2023-08-08T00:01:09;9.60;;;6.13;;
15913;SDS011;8055;51.930;8.840;2023-08-08T00:03:35;8.18;;;5.00;;
15913;SDS011;8055;51.930;8.840;2023-08-08T00:06:00;7.22;;;5.25;;
15913;SDS011;8055;51.930;8.840;2023-08-08T00:08:26;8.43;;;5.53;;
15913;SDS011;8055;51.930;8.840;2023-08-08T00:10:51;8.63;;;4.93;;
15913;SDS011;8055;51.930;8.840;2023-08-08T00:13:17;11.20;;;5.90;;
15913;SDS011;8055;51.930;8.840;2023-08-08T00:15:42;10.48;;;6.07;;
15913;SDS011;8055;51.930;8.840;2023-08-08T00:18:08;10.55;;;6.13;;
15913;SDS011;8055;51.930;8.840;2023-08-08T00:20:33;10.27;;;5.72;;
15913;SDS011;8055;51.930;8.840;2023-08-08T00:22:59;10.45;;;6.55;;
15913;SDS011;8055;51.930;8.840;2023-08-08T00:25:24;10.48;;;5.82;;
15913;SDS011;8055;51.930;8.840;2023-08-08T00:27:50;11.63;;;5.78;;
15913;SDS011;8055;51.930;8.840;2023-08-08T00:30:15;11.77;;;5.93;;
15913;SDS011;8055;51.930;8.840;2023-08-08T00:32:41;9.60;;;5.95;;
15913;SDS011;8055;51.930;8.840;2023-08-08T00:35:07;12.65;;;6.72;;
15913;SDS011;8055;51.930;8.840;2023-08-08T00:37:32;14.18;;;6.80;;
15913;SDS011;8055;51.930;8.840;2023-08-08T00:39:58;11.18;;;6.97;;
15913;SDS011;8055;51.930;8.840;2023-08-08T00:42:23;9.43;;;6.18;;
15913;SDS011;8055;51.930;8.840;2023-08-08T00:44:49;8.88;;;6.85;;
15913;SDS011;8055;51.930;8.840;2023-08-08T00:47:14;10.65;;;7.18;;
15913;SDS011;8055;51.930;8.840;2023-08-08T00:49:39;10.43;;;6.93;;
15913;SDS011;8055;51.930;8.840;2023-08-08T00:52:06;13.30;;;7.28;;
15913;SDS011;8055;51.930;8.840;2023-08-08T00:54:32;10.05;;;6.85;;
15913;SDS011;8055;51.930;8.840;2023-08-08T00:56:57;11.15;;;7.00;;
15913;SDS011;8055;51.930;8.840;2023-08-08T00:59:22;13.82;;;7.50;;
15913;SDS011;8055;51.930;8.840;2023-08-08T01:01:48;11.93;;;7.55;;
15913;SDS011;8055;51.930;8.840;2023-08-08T01:04:14;12.98;;;6.90;;
15913;SDS011;8055;51.930;8.840;2023-08-08T01:09:21;11.43;;;7.57;;
15913;SDS011;8055;51.930;8.840;2023-08-08T01:11:53;14.70;;;7.32;;
15913;SDS011;8055;51.930;8.840;2023-08-08T01:14:19;10.77;;;7.07;;
15913;SDS011;8055;51.930;8.840;2023-08-08T01:16:46;13.70;;;7.45;;
15913;SDS011;8055;51.930;8.840;2023-08-08T01:19:12;10.63;;;7.18;;
15913;SDS011;8055;51.930;8.840;2023-08-08T01:21:45;10.00;;;6.78;;
15913;SDS011;8055;51.930;8.840;2023-08-08T01:24:23;12.82;;;6.95;;
15913;SDS011;8055;51.930;8.840;2023-08-08T01:26:54;9.38;;;5.88;;
15913;SDS011;8055;51.930;8.840;2023-08-08T01:29:20;10.98;;;6.25;;
15913;SDS011;8055;51.930;8.840;2023-08-08T01:31:46;12.80;;;6.68;;
15913;SDS011;8055;51.930;8.840;2023-08-08T01:34:11;11.25;;;6.47;;
15913;SDS011;8055;51.930;8.840;2023-08-08T01:36:39;12.32;;;6.32;;
15913;SDS011;8055;51.930;8.840;2023-08-08T01:39:13;16.90;;;7.20;;
15913;SDS011;8055;51.930;8.840;2023-08-08T01:41:41;12.07;;;6.47;;
15913;SDS011;8055;51.930;8.840;2023-08-08T01:44:10;9.90;;;6.85;;
15913;SDS011;8055;51.930;8.840;2023-08-08T01:46:36;9.68;;;6.35;;
15913;SDS011;8055;51.930;8.840;2023-08-08T01:49:03;8.82;;;5.50;;
15913;SDS011;8055;51.930;8.840;2023-08-08T01:51:31;10.40;;;6.32;;
15913;SDS011;8055;51.930;8.840;2023-08-08T01:53:57;10.98;;;6.05;;
15913;SDS011;8055;51.930;8.840;2023-08-08T01:56:22;11.55;;;6.35;;
15913;SDS011;8055;51.930;8.840;2023-08-08T01:58:47;8.15;;;5.40;;
15913;SDS011;8055;51.930;8.840;2023-08-08T02:01:13;11.50;;;5.85;;
15913;SDS011;8055;51.930;8.840;2023-08-08T02:03:38;10.63;;;5.50;;
15913;SDS011;8055;51.930;8.840;2023-08-08T02:06:04;8.63;;;5.32;;
15913;SDS011;8055;51.930;8.840;2023-08-08T02:08:29;7.45;;;5.15;;
15913;SDS011;8055;51.930;8.840;2023-08-08T02:10:54;7.75;;;5.05;;
15913;SDS011;8055;51.930;8.840;2023-08-08T02:13:20;7.15;;;4.63;;
15913;SDS011;8055;51.930;8.840;2023-08-08T02:15:45;6.10;;;4.63;;
15913;SDS011;8055;51.930;8.840;2023-08-08T02:18:11;8.35;;;4.53;;
15913;SDS011;8055;51.930;8.840;2023-08-08T02:20:36;8.05;;;4.47;;
15913;SDS011;8055;51.930;8.840;2023-08-08T02:23:02;9.05;;;4.43;;
15913;SDS011;8055;51.930;8.840;2023-08-08T02:25:28;6.45;;;3.88;;
15913;SDS011;8055;51.930;8.840;2023-08-08T02:27:54;10.60;;;3.55;;
15913;SDS011;8055;51.930;8.840;2023-08-08T02:30:19;11.05;;;3.58;;
15913;SDS011;8055;51.930;8.840;2023-08-08T02:32:44;8.10;;;4.00;;
15913;SDS011;8055;51.930;8.840;2023-08-08T02:35:10;5.70;;;3.60;;
15913;SDS011;8055;51.930;8.840;2023-08-08T02:37:35;6.05;;;3.38;;
15913;SDS011;8055;51.930;8.840;2023-08-08T02:40:01;6.15;;;3.78;;
15913;SDS011;8055;51.930;8.840;2023-08-08T02:42:26;5.72;;;3.35;;
15913;SDS011;8055;51.930;8.840;2023-08-08T02:44:52;6.93;;;3.40;;
15913;SDS011;8055;51.930;8.840;2023-08-08T02:47:17;5.32;;;3.22;;
15913;SDS011;8055;51.930;8.840;2023-08-08T02:49:42;5.20;;;3.47;;
15913;SDS011;8055;51.930;8.840;2023-08-08T02:52:08;5.38;;;3.50;;
15913;SDS011;8055;51.930;8.840;2023-08-08T02:54:33;5.78;;;3.70;;
15913;SDS011;8055;51.930;8.840;2023-08-08T02:56:59;6.22;;;3.47;;
15913;SDS011;8055;51.930;8.840;2023-08-08T02:59:25;8.70;;;3.08;;
15913;SDS011;8055;51.930;8.840;2023-08-08T03:01:50;6.10;;;3.35;;
15913;SDS011;8055;51.930;8.840;2023-08-08T03:04:16;4.82;;;3.22;;
15913;SDS011;8055;51.930;8.840;2023-08-08T03:06:41;7.13;;;3.30;;
15913;SDS011;8055;51.930;8.840;2023-08-08T03:09:06;5.90;;;3.25;;
15913;SDS011;8055;51.930;8.840;2023-08-08T03:11:32;5.03;;;3.08;;
15913;SDS011;8055;51.930;8.840;2023-08-08T03:13:57;5.63;;;3.40;;
15913;SDS011;8055;51.930;8.840;2023-08-08T03:16:23;8.20;;;3.38;;
15913;SDS011;8055;51.930;8.840;2023-08-08T03:18:48;4.75;;;3.00;;
15913;SDS011;8055;51.930;8.840;2023-08-08T03:21:14;8.38;;;3.72;;
15913;SDS011;8055;51.930;8.840;2023-08-08T03:23:39;6.55;;;2.90;;
15913;SDS011;8055;51.930;8.840;2023-08-08T03:26:04;6.13;;;3.00;;
15913;SDS011;8055;51.930;8.840;2023-08-08T03:28:30;4.55;;;3.22;;
15913;SDS011;8055;51.930;8.840;2023-08-08T03:30:55;6.93;;;3.10;;
15913;SDS011;8055;51.930;8.840;2023-08-08T03:33:21;5.68;;;3.50;;
15913;SDS011;8055;51.930;8.840;2023-08-08T03:35:46;5.30;;;3.35;;
15913;SDS011;8055;51.930;8.840;2023-08-08T03:38:12;6.38;;;3.60;;
15913;SDS011;8055;51.930;8.840;2023-08-08T03:40:37;5.28;;;4.20;;
15913;SDS011;8055;51.930;8.840;2023-08-08T03:43:02;6.80;;;4.38;;
15913;SDS011;8055;51.930;8.840;2023-08-08T03:45:28;6.22;;;4.32;;
15913;SDS011;8055;51.930;8.840;2023-08-08T03:47:54;7.15;;;4.38;;
15913;SDS011;8055;51.930;8.840;2023-08-08T03:50:19;6.82;;;4.93;;
15913;SDS011;8055;51.930;8.840;2023-08-08T03:52:45;7.07;;;5.47;;
15913;SDS011;8055;51.930;8.840;2023-08-08T03:55:10;8.32;;;4.80;;
15913;SDS011;8055;51.930;8.840;2023-08-08T03:57:36;6.63;;;5.00;;
15913;SDS011;8055;51.930;8.840;2023-08-08T04:00:01;7.25;;;5.32;;
15913;SDS011;8055;51.930;8.840;2023-08-08T04:02:27;7.15;;;5.18;;
15913;SDS011;8055;51.930;8.840;2023-08-08T04:04:53;12.98;;;7.20;;
15913;SDS011;8055;51.930;8.840;2023-08-08T04:07:18;7.68;;;5.28;;
15913;SDS011;8055;51.930;8.840;2023-08-08T04:09:44;8.13;;;6.32;;
15913;SDS011;8055;51.930;8.840;2023-08-08T04:12:09;8.60;;;6.22;;
15913;SDS011;8055;51.930;8.840;2023-08-08T04:14:34;8.65;;;6.20;;
15913;SDS011;8055;51.930;8.840;2023-08-08T04:17:00;10.27;;;6.60;;
15913;SDS011;8055;51.930;8.840;2023-08-08T04:19:25;7.57;;;6.07;;
15913;SDS011;8055;51.930;8.840;2023-08-08T04:21:51;9.68;;;5.80;;
15913;SDS011;8055;51.930;8.840;2023-08-08T04:24:16;6.72;;;5.55;;
15913;SDS011;8055;51.930;8.840;2023-08-08T04:26:41;10.48;;;6.13;;
15913;SDS011;8055;51.930;8.840;2023-08-08T04:29:07;8.13;;;5.53;;
15913;SDS011;8055;51.930;8.840;2023-08-08T04:31:32;10.25;;;5.65;;
15913;SDS011;8055;51.930;8.840;2023-08-08T04:33:58;9.15;;;5.80;;
15913;SDS011;8055;51.930;8.840;2023-08-08T04:36:29;6.93;;;5.63;;
15913;SDS011;8055;51.930;8.840;2023-08-08T04:38:54;13.13;;;6.22;;
15913;SDS011;8055;51.930;8.840;2023-08-08T04:41:20;9.90;;;5.53;;
15913;SDS011;8055;51.930;8.840;2023-08-08T04:43:46;8.15;;;5.72;;
15913;SDS011;8055;51.930;8.840;2023-08-08T04:46:11;7.47;;;5.82;;
15913;SDS011;8055;51.930;8.840;2023-08-08T04:48:37;8.27;;;5.07;;
15913;SDS011;8055;51.930;8.840;2023-08-08T04:51:06;10.75;;;5.95;;
15913;SDS011;8055;51.930;8.840;2023-08-08T04:53:31;11.40;;;5.72;;
15913;SDS011;8055;51.930;8.840;2023-08-08T04:55:57;7.70;;;5.97;;
15913;SDS011;8055;51.930;8.840;2023-08-08T04:58:23;8.77;;;5.35;;
15913;SDS011;8055;51.930;8.840;2023-08-08T05:00:48;7.75;;;6.22;;
15913;SDS011;8055;51.930;8.840;2023-08-08T05:03:15;8.70;;;5.93;;
15913;SDS011;8055;51.930;8.840;2023-08-08T05:05:41;7.75;;;6.00;;
15913;SDS011;8055;51.930;8.840;2023-08-08T05:08:09;7.78;;;5.35;;
15913;SDS011;8055;51.930;8.840;2023-08-08T05:10:35;10.07;;;5.60;;
15913;SDS011;8055;51.930;8.840;2023-08-08T05:13:01;7.75;;;6.10;;
15913;SDS011;8055;51.930;8.840;2023-08-08T05:15:26;8.20;;;5.95;;
15913;SDS011;8055;51.930;8.840;2023-08-08T05:17:52;7.30;;;5.38;;
15913;SDS011;8055;51.930;8.840;2023-08-08T05:20:19;13.38;;;6.13;;
15913;SDS011;8055;51.930;8.840;2023-08-08T05:22:44;8.63;;;5.78;;
15913;SDS011;8055;51.930;8.840;2023-08-08T05:25:10;8.70;;;6.43;;
15913;SDS011;8055;51.930;8.840;2023-08-08T05:27:35;9.38;;;6.30;;
15913;SDS011;8055;51.930;8.840;2023-08-08T05:30:01;8.05;;;6.22;;
15913;SDS011;8055;51.930;8.840;2023-08-08T05:32:26;10.48;;;6.28;;
15913;SDS011;8055;51.930;8.840;2023-08-08T05:34:51;9.95;;;6.00;;
15913;SDS011;8055;51.930;8.840;2023-08-08T05:37:17;12.05;;;7.53;;
15913;SDS011;8055;51.930;8.840;2023-08-08T05:39:42;12.38;;;7.53;;
15913;SDS011;8055;51.930;8.840;2023-08-08T05:42:08;11.10;;;7.43;;
15913;SDS011;8055;51.930;8.840;2023-08-08T05:44:33;10.43;;;7.30;;
15913;SDS011;8055;51.930;8.840;2023-08-08T05:46:59;12.63;;;8.20;;
15913;SDS011;8055;51.930;8.840;2023-08-08T05:49:24;12.85;;;8.10;;
15913;SDS011;8055;51.930;8.840;2023-08-08T05:51:49;13.75;;;8.15;;
15913;SDS011;8055;51.930;8.840;2023-08-08T05:54:15;9.00;;;6.25;;
15913;SDS011;8055;51.930;8.840;2023-08-08T05:56:40;11.25;;;7.43;;
15913;SDS011;8055;51.930;8.840;2023-08-08T05:59:06;14.55;;;7.82;;
15913;SDS011;8055;51.930;8.840;2023-08-08T06:01:31;12.05;;;7.88;;
15913;SDS011;8055;51.930;8.840;2023-08-08T06:03:58;11.07;;;7.22;;
15913;SDS011;8055;51.930;8.840;2023-08-08T06:06:24;14.13;;;7.95;;
15913;SDS011;8055;51.930;8.840;2023-08-08T06:08:50;13.68;;;8.57;;
15913;SDS011;8055;51.930;8.840;2023-08-08T06:11:16;16.88;;;9.18;;
15913;SDS011;8055;51.930;8.840;2023-08-08T06:13:41;13.10;;;8.40;;
15913;SDS011;8055;51.930;8.840;2023-08-08T06:16:06;15.20;;;9.02;;
15913;SDS011;8055;51.930;8.840;2023-08-08T06:18:32;11.07;;;7.97;;
15913;SDS011;8055;51.930;8.840;2023-08-08T06:20:58;13.70;;;9.25;;
15913;SDS011;8055;51.930;8.840;2023-08-08T06:23:24;13.32;;;8.63;;
15913;SDS011;8055;51.930;8.840;2023-08-08T06:25:49;15.18;;;7.85;;
15913;SDS011;8055;51.930;8.840;2023-08-08T06:28:15;11.90;;;8.43;;
15913;SDS011;8055;51.930;8.840;2023-08-08T06:30:40;14.07;;;7.68;;
15913;SDS011;8055;51.930;8.840;2023-08-08T06:33:05;10.63;;;8.27;;
15913;SDS011;8055;51.930;8.840;2023-08-08T06:35:31;11.13;;;7.32;;
15913;SDS011;8055;51.930;8.840;2023-08-08T06:37:56;12.70;;;6.88;;
15913;SDS011;8055;51.930;8.840;2023-08-08T06:40:22;12.45;;;7.00;;
15913;SDS011;8055;51.930;8.840;2023-08-08T06:42:48;10.65;;;6.70;;
15913;SDS011;8055;51.930;8.840;2023-08-08T06:45:14;11.00;;;6.95;;
15913;SDS011;8055;51.930;8.840;2023-08-08T06:47:39;12.60;;;7.43;;
15913;SDS011;8055;51.930;8.840;2023-08-08T06:50:05;10.27;;;6.85;;
15913;SDS011;8055;51.930;8.840;2023-08-08T06:52:31;15.88;;;7.60;;
15913;SDS011;8055;51.930;8.840;2023-08-08T06:54:56;13.65;;;7.60;;
15913;SDS011;8055;51.930;8.840;2023-08-08T06:57:22;13.68;;;8.73;;
15913;SDS011;8055;51.930;8.840;2023-08-08T06:59:47;14.07;;;8.35;;
15913;SDS011;8055;51.930;8.840;2023-08-08T07:02:15;12.15;;;7.82;;
15913;SDS011;8055;51.930;8.840;2023-08-08T07:04:41;15.73;;;8.30;;
15913;SDS011;8055;51.930;8.840;2023-08-08T07:07:07;12.55;;;9.40;;
15913;SDS011;8055;51.930;8.840;2023-08-08T07:09:32;16.02;;;9.50;;
15913;SDS011;8055;51.930;8.840;2023-08-08T07:11:58;12.93;;;9.40;;
15913;SDS011;8055;51.930;8.840;2023-08-08T07:14:23;15.75;;;11.10;;
15913;SDS011;8055;51.930;8.840;2023-08-08T07:16:49;17.60;;;11.18;;
15913;SDS011;8055;51.930;8.840;2023-08-08T07:19:14;16.83;;;11.00;;
15913;SDS011;8055;51.930;8.840;2023-08-08T07:21:40;18.77;;;11.40;;
15913;SDS011;8055;51.930;8.840;2023-08-08T07:24:06;20.77;;;11.63;;
15913;SDS011;8055;51.930;8.840;2023-08-08T07:26:31;25.27;;;11.55;;
15913;SDS011;8055;51.930;8.840;2023-08-08T07:28:57;22.80;;;12.05;;
15913;SDS011;8055;51.930;8.840;2023-08-08T07:31:22;17.48;;;12.30;;
15913;SDS011;8055;51.930;8.840;2023-08-08T07:33:48;16.45;;;11.57;;
15913;SDS011;8055;51.930;8.840;2023-08-08T07:36:13;22.02;;;12.68;;
15913;SDS011;8055;51.930;8.840;2023-08-08T07:38:39;16.88;;;12.18;;
15913;SDS011;8055;51.930;8.840;2023-08-08T07:41:04;17.90;;;11.45;;
15913;SDS011;8055;51.930;8.840;2023-08-08T07:43:30;21.42;;;13.23;;
15913;SDS011;8055;51.930;8.840;2023-08-08T07:45:55;17.88;;;12.30;;
15913;SDS011;8055;51.930;8.840;2023-08-08T07:48:21;19.05;;;12.27;;
15913;SDS011;8055;51.930;8.840;2023-08-08T07:50:46;17.92;;;12.60;;
15913;SDS011;8055;51.930;8.840;2023-08-08T07:53:12;17.60;;;11.95;;
15913;SDS011;8055;51.930;8.840;2023-08-08T07:55:37;20.95;;;12.43;;
15913;SDS011;8055;51.930;8.840;2023-08-08T07:58:03;18.55;;;12.63;;
15913;SDS011;8055;51.930;8.840;2023-08-08T08:00:28;20.48;;;12.55;;
15913;SDS011;8055;51.930;8.840;2023-08-08T08:02:53;17.58;;;12.57;;
15913;SDS011;8055;51.930;8.840;2023-08-08T08:05:19;17.48;;;11.73;;
15913;SDS011;8055;51.930;8.840;2023-08-08T08:07:44;17.52;;;12.32;;
15913;SDS011;8055;51.930;8.840;2023-08-08T08:10:11;15.63;;;11.77;;
15913;SDS011;8055;51.930;8.840;2023-08-08T08:12:39;16.52;;;12.35;;
15913;SDS011;8055;51.930;8.840;2023-08-08T08:15:06;26.95;;;12.02;;
15913;SDS011;8055;51.930;8.840;2023-08-08T08:17:32;16.00;;;11.65;;
15913;SDS011;8055;51.930;8.840;2023-08-08T08:19:58;19.70;;;12.07;;
15913;SDS011;8055;51.930;8.840;2023-08-08T08:22:23;18.73;;;12.45;;
15913;SDS011;8055;51.930;8.840;2023-08-08T08:24:49;19.70;;;12.30;;
15913;SDS011;8055;51.930;8.840;2023-08-08T08:27:15;19.08;;;12.57;;
15913;SDS011;8055;51.930;8.840;2023-08-08T08:29:40;20.80;;;12.65;;
15913;SDS011;8055;51.930;8.840;2023-08-08T08:32:06;17.55;;;13.20;;
15913;SDS011;8055;51.930;8.840;2023-08-08T08:34:31;21.98;;;12.98;;
15913;SDS011;8055;51.930;8.840;2023-08-08T08:36:56;18.33;;;12.75;;
15913;SDS011;8055;51.930;8.840;2023-08-08T08:39:22;16.90;;;11.75;;
15913;SDS011;8055;51.930;8.840;2023-08-08T08:41:49;18.45;;;11.75;;
15913;SDS011;8055;51.930;8.840;2023-08-08T08:44:17;17.70;;;11.70;;
15913;SDS011;8055;51.930;8.840;2023-08-08T08:46:46;16.77;;;11.48;;
15913;SDS011;8055;51.930;8.840;2023-08-08T08:49:13;18.63;;;11.23;;
15913;SDS011;8055;51.930;8.840;2023-08-08T08:51:40;22.73;;;10.52;;
15913;SDS011;8055;51.930;8.840;2023-08-08T08:54:05;15.90;;;10.15;;
15913;SDS011;8055;51.930;8.840;2023-08-08T08:56:31;15.35;;;10.70;;
15913;SDS011;8055;51.930;8.840;2023-08-08T08:58:58;17.08;;;10.70;;
15913;SDS011;8055;51.930;8.840;2023-08-08T09:01:25;17.58;;;10.05;;
15913;SDS011;8055;51.930;8.840;2023-08-08T09:03:52;18.73;;;10.13;;
15913;SDS011;8055;51.930;8.840;2023-08-08T09:06:18;22.52;;;10.73;;
15913;SDS011;8055;51.930;8.840;2023-08-08T09:08:45;16.80;;;11.02;;
15913;SDS011;8055;51.930;8.840;2023-08-08T09:11:12;17.98;;;10.25;;
15913;SDS011;8055;51.930;8.840;2023-08-08T09:13:39;15.95;;;11.00;;
15913;SDS011;8055;51.930;8.840;2023-08-08T09:16:05;18.65;;;10.85;;
15913;SDS011;8055;51.930;8.840;2023-08-08T09:18:32;17.15;;;10.05;;
15913;SDS011;8055;51.930;8.840;2023-08-08T09:20:58;19.75;;;11.25;;
15913;SDS011;8055;51.930;8.840;2023-08-08T09:23:24;17.63;;;11.02;;
15913;SDS011;8055;51.930;8.840;2023-08-08T09:25:49;18.85;;;11.00;;
15913;SDS011;8055;51.930;8.840;2023-08-08T09:28:15;15.05;;;10.20;;
15913;SDS011;8055;51.930;8.840;2023-08-08T09:30:41;17.95;;;10.43;;
15913;SDS011;8055;51.930;8.840;2023-08-08T09:33:07;18.17;;;9.85;;
15913;SDS011;8055;51.930;8.840;2023-08-08T09:35:33;19.23;;;9.20;;
15913;SDS011;8055;51.930;8.840;2023-08-08T09:37:58;15.15;;;9.68;;
15913;SDS011;8055;51.930;8.840;2023-08-08T09:40:24;12.48;;;8.07;;
15913;SDS011;8055;51.930;8.840;2023-08-08T09:42:52;10.52;;;8.40;;
15913;SDS011;8055;51.930;8.840;2023-08-08T09:45:20;14.57;;;8.35;;
15913;SDS011;8055;51.930;8.840;2023-08-08T09:47:48;11.98;;;7.47;;
15913;SDS011;8055;51.930;8.840;2023-08-08T09:50:17;10.57;;;7.20;;
15913;SDS011;8055;51.930;8.840;2023-08-08T09:52:43;16.48;;;8.07;;
15913;SDS011;8055;51.930;8.840;2023-08-08T09:55:11;11.10;;;7.15;;
15913;SDS011;8055;51.930;8.840;2023-08-08T09:57:38;11.82;;;8.02;;
15913;SDS011;8055;51.930;8.840;2023-08-08T10:00:04;11.60;;;7.70;;
15913;SDS011;8055;51.930;8.840;2023-08-08T10:02:35;11.18;;;7.50;;
15913;SDS011;8055;51.930;8.840;2023-08-08T10:05:01;12.63;;;7.63;;
15913;SDS011;8055;51.930;8.840;2023-08-08T10:07:28;14.07;;;8.50;;
15913;SDS011;8055;51.930;8.840;2023-08-08T10:09:53;10.27;;;7.57;;
15913;SDS011;8055;51.930;8.840;2023-08-08T10:12:19;13.07;;;8.15;;
15913;SDS011;8055;51.930;8.840;2023-08-08T10:14:45;12.35;;;8.75;;
15913;SDS011;8055;51.930;8.840;2023-08-08T10:17:13;13.95;;;8.38;;
15913;SDS011;8055;51.930;8.840;2023-08-08T10:19:39;9.70;;;7.30;;
15913;SDS011;8055;51.930;8.840;2023-08-08T10:22:05;10.25;;;7.45;;
15913;SDS011;8055;51.930;8.840;2023-08-08T10:24:33;12.55;;;7.57;;
15913;SDS011;8055;51.930;8.840;2023-08-08T10:27:00;10.40;;;6.90;;
15913;SDS011;8055;51.930;8.840;2023-08-08T10:29:28;13.68;;;7.07;;
15913;SDS011;8055;51.930;8.840;2023-08-08T10:32:01;9.80;;;6.35;;
15913;SDS011;8055;51.930;8.840;2023-08-08T10:34:41;10.10;;;6.05;;
15913;SDS011;8055;51.930;8.840;2023-08-08T10:37:11;11.02;;;5.20;;
15913;SDS011;8055;51.930;8.840;2023-08-08T10:39:48;8.70;;;4.75;;
15913;SDS011;8055;51.930;8.840;2023-08-08T10:42:17;11.30;;;5.30;;
15913;SDS011;8055;51.930;8.840;2023-08-08T10:44:50;8.80;;;4.57;;
15913;SDS011;8055;51.930;8.840;2023-08-08T10:47:21;8.52;;;3.92;;
15913;SDS011;8055;51.930;8.840;2023-08-08T10:50:15;8.73;;;4.13;;
15913;SDS011;8055;51.930;8.840;2023-08-08T10:55:24;10.60;;;4.33;;
15913;SDS011;8055;51.930;8.840;2023-08-08T10:57:53;4.55;;;2.70;;
15913;SDS011;8055;51.930;8.840;2023-08-08T11:00:23;6.88;;;3.03;;
15913;SDS011;8055;51.930;8.840;2023-08-08T11:02:50;4.40;;;2.65;;
15913;SDS011;8055;51.930;8.840;2023-08-08T11:05:16;6.13;;;2.90;;
15913;SDS011;8055;51.930;8.840;2023-08-08T11:07:42;5.32;;;2.75;;
15913;SDS011;8055;51.930;8.840;2023-08-08T11:10:09;10.15;;;3.10;;
15913;SDS011;8055;51.930;8.840;2023-08-08T11:12:35;7.75;;;2.92;;
15913;SDS011;8055;51.930;8.840;2023-08-08T11:15:00;6.00;;;3.05;;
15913;SDS011;8055;51.930;8.840;2023-08-08T11:17:26;8.13;;;2.70;;
15913;SDS011;8055;51.930;8.840;2023-08-08T11:19:52;3.83;;;2.33;;
15913;SDS011;8055;51.930;8.840;2023-08-08T11:22:17;6.07;;;2.08;;
15913;SDS011;8055;51.930;8.840;2023-08-08T11:24:48;6.60;;;2.20;;
15913;SDS011;8055;51.930;8.840;2023-08-08T11:27:15;6.55;;;2.28;;
15913;SDS011;8055;51.930;8.840;2023-08-08T11:29:40;4.75;;;1.95;;
15913;SDS011;8055;51.930;8.840;2023-08-08T11:32:06;7.90;;;2.20;;
15913;SDS011;8055;51.930;8.840;2023-08-08T11:34:34;4.43;;;1.67;;
15913;SDS011;8055;51.930;8.840;2023-08-08T11:37:00;7.10;;;2.00;;
15913;SDS011;8055;51.930;8.840;2023-08-08T11:39:25;4.90;;;2.15;;
15913;SDS011;8055;51.930;8.840;2023-08-08T11:41:51;3.05;;;1.75;;
15913;SDS011;8055;51.930;8.840;2023-08-08T11:44:17;5.00;;;1.83;;
15913;SDS011;8055;51.930;8.840;2023-08-08T11:46:43;5.32;;;2.10;;
15913;SDS011;8055;51.930;8.840;2023-08-08T11:49:10;5.05;;;1.95;;
15913;SDS011;8055;51.930;8.840;2023-08-08T11:51:38;4.07;;;1.90;;
15913;SDS011;8055;51.930;8.840;2023-08-08T11:54:03;5.55;;;1.88;;
15913;SDS011;8055;51.930;8.840;2023-08-08T11:56:29;4.78;;;1.45;;
15913;SDS011;8055;51.930;8.840;2023-08-08T11:58:58;3.47;;;1.48;;
15913;SDS011;8055;51.930;8.840;2023-08-08T12:01:25;3.33;;;1.60;;
15913;SDS011;8055;51.930;8.840;2023-08-08T12:03:51;3.95;;;1.40;;
15913;SDS011;8055;51.930;8.840;2023-08-08T12:06:17;4.50;;;1.40;;
15913;SDS011;8055;51.930;8.840;2023-08-08T12:08:43;3.65;;;1.40;;
15913;SDS011;8055;51.930;8.840;2023-08-08T12:11:13;3.35;;;1.45;;
15913;SDS011;8055;51.930;8.840;2023-08-08T12:13:40;3.42;;;1.30;;
15913;SDS011;8055;51.930;8.840;2023-08-08T12:16:10;3.05;;;1.20;;
15913;SDS011;8055;51.930;8.840;2023-08-08T12:18:37;2.25;;;1.35;;
15913;SDS011;8055;51.930;8.840;2023-08-08T12:21:06;4.35;;;1.45;;
15913;SDS011;8055;51.930;8.840;2023-08-08T12:23:34;4.82;;;1.83;;
15913;SDS011;8055;51.930;8.840;2023-08-08T12:26:02;5.70;;;1.90;;
15913;SDS011;8055;51.930;8.840;2023-08-08T12:28:30;5.88;;;1.40;;
15913;SDS011;8055;51.930;8.840;2023-08-08T12:30:55;3.13;;;1.58;;
15913;SDS011;8055;51.930;8.840;2023-08-08T12:33:21;3.63;;;1.13;;
15913;SDS011;8055;51.930;8.840;2023-08-08T12:35:47;3.95;;;1.40;;
15913;SDS011;8055;51.930;8.840;2023-08-08T12:38:13;2.88;;;1.48;;
15913;SDS011;8055;51.930;8.840;2023-08-08T12:40:39;3.88;;;1.30;;
15913;SDS011;8055;51.930;8.840;2023-08-08T12:43:04;2.25;;;1.30;;
15913;SDS011;8055;51.930;8.840;2023-08-08T12:45:30;2.58;;;1.20;;
15913;SDS011;8055;51.930;8.840;2023-08-08T12:47:55;4.35;;;1.27;;
15913;SDS011;8055;51.930;8.840;2023-08-08T12:50:20;6.00;;;1.38;;
15913;SDS011;8055;51.930;8.840;2023-08-08T12:52:46;2.85;;;1.20;;
15913;SDS011;8055;51.930;8.840;2023-08-08T12:55:11;2.22;;;1.23;;
15913;SDS011;8055;51.930;8.840;2023-08-08T12:57:37;3.20;;;1.00;;
15913;SDS011;8055;51.930;8.840;2023-08-08T13:00:03;3.33;;;1.40;;
15913;SDS011;8055;51.930;8.840;2023-08-08T13:02:30;3.58;;;1.08;;
15913;SDS011;8055;51.930;8.840;2023-08-08T13:04:56;3.90;;;1.38;;
15913;SDS011;8055;51.930;8.840;2023-08-08T13:07:21;4.20;;;1.20;;
15913;SDS011;8055;51.930;8.840;2023-08-08T13:09:47;4.90;;;1.45;;
15913;SDS011;8055;51.930;8.840;2023-08-08T13:12:12;5.90;;;1.42;;
15913;SDS011;8055;51.930;8.840;2023-08-08T13:14:37;2.30;;;1.02;;
15913;SDS011;8055;51.930;8.840;2023-08-08T13:17:03;3.28;;;1.08;;
15913;SDS011;8055;51.930;8.840;2023-08-08T13:19:29;5.40;;;1.35;;
15913;SDS011;8055;51.930;8.840;2023-08-08T13:21:54;2.78;;;1.33;;
15913;SDS011;8055;51.930;8.840;2023-08-08T13:24:20;4.53;;;1.60;;
15913;SDS011;8055;51.930;8.840;2023-08-08T13:26:49;7.07;;;1.60;;
15913;SDS011;8055;51.930;8.840;2023-08-08T13:29:15;2.50;;;1.15;;
15913;SDS011;8055;51.930;8.840;2023-08-08T13:31:41;4.82;;;1.65;;
15913;SDS011;8055;51.930;8.840;2023-08-08T13:34:06;8.35;;;1.90;;
15913;SDS011;8055;51.930;8.840;2023-08-08T13:36:31;6.25;;;1.73;;
15913;SDS011;8055;51.930;8.840;2023-08-08T13:38:57;3.30;;;1.30;;
15913;SDS011;8055;51.930;8.840;2023-08-08T13:41:23;4.25;;;1.15;;
15913;SDS011;8055;51.930;8.840;2023-08-08T13:43:49;3.72;;;1.33;;
15913;SDS011;8055;51.930;8.840;2023-08-08T13:46:14;2.60;;;1.20;;
15913;SDS011;8055;51.930;8.840;2023-08-08T13:48:39;4.65;;;1.60;;
15913;SDS011;8055;51.930;8.840;2023-08-08T13:51:05;2.45;;;1.20;;
15913;SDS011;8055;51.930;8.840;2023-08-08T13:53:30;3.92;;;1.25;;
15913;SDS011;8055;51.930;8.840;2023-08-08T13:55:56;6.30;;;1.65;;
15913;SDS011;8055;51.930;8.840;2023-08-08T13:58:21;5.68;;;1.20;;
15913;SDS011;8055;51.930;8.840;2023-08-08T14:00:49;4.65;;;1.13;;
15913;SDS011;8055;51.930;8.840;2023-08-08T14:03:15;3.83;;;1.23;;
15913;SDS011;8055;51.930;8.840;2023-08-08T14:05:40;3.63;;;1.30;;
15913;SDS011;8055;51.930;8.840;2023-08-08T14:08:06;3.72;;;1.63;;
15913;SDS011;8055;51.930;8.840;2023-08-08T14:10:32;5.78;;;1.70;;
15913;SDS011;8055;51.930;8.840;2023-08-08T14:12:58;6.65;;;2.10;;
15913;SDS011;8055;51.930;8.840;2023-08-08T14:15:23;5.53;;;2.20;;
15913;SDS011;8055;51.930;8.840;2023-08-08T14:17:49;3.13;;;1.60;;
15913;SDS011;8055;51.930;8.840;2023-08-08T14:20:14;6.07;;;1.70;;
15913;SDS011;8055;51.930;8.840;2023-08-08T14:22:40;3.88;;;1.30;;
15913;SDS011;8055;51.930;8.840;2023-08-08T14:25:09;3.42;;;1.70;;
15913;SDS011;8055;51.930;8.840;2023-08-08T14:27:34;4.65;;;1.40;;
15913;SDS011;8055;51.930;8.840;2023-08-08T14:30:01;3.60;;;1.48;;
15913;SDS011;8055;51.930;8.840;2023-08-08T14:32:27;5.50;;;1.20;;
15913;SDS011;8055;51.930;8.840;2023-08-08T14:34:52;3.55;;;1.30;;
15913;SDS011;8055;51.930;8.840;2023-08-08T14:37:18;3.72;;;1.17;;
15913;SDS011;8055;51.930;8.840;2023-08-08T14:39:43;2.70;;;1.20;;
15913;SDS011;8055;51.930;8.840;2023-08-08T14:42:08;2.53;;;1.13;;
15913;SDS011;8055;51.930;8.840;2023-08-08T14:44:34;2.13;;;1.15;;
15913;SDS011;8055;51.930;8.840;2023-08-08T14:46:59;4.45;;;1.20;;
15913;SDS011;8055;51.930;8.840;2023-08-08T14:49:24;5.15;;;1.45;;
15913;SDS011;8055;51.930;8.840;2023-08-08T14:51:50;6.93;;;1.13;;